Time;durP1;ratioP1;P1;durP2;ratioP2;P2;SDS_P1;SDS_P2;PMS_P1;PMS_P2;Temp;Humidity;BMP_temperature;BMP_pressure;BME280_temperature;BME280_humidity;BME280_pressure;Samples;Min_cycle;Max_cycle;Signal;HPM_P1;HPM_P2
2022/03/24 00:02:12;;;;;;;;;19.50;19.50;;;;;20.21;27.39;102292.09;4974247;28;46258;-51
2022/03/24 00:04:38;;;;;;;;;20.50;16.75;;;;;20.20;27.44;102286.91;4974392;28;45319;-51
2022/03/24 00:07:04;;;;;;;;;18.25;17.75;;;;;20.19;27.07;102282.53;4974620;28;45377;-52
2022/03/24 00:09:29;;;;;;;;;16.75;14.75;;;;;20.19;27.02;102279.91;4974641;28;45485;-46
2022/03/24 00:11:55;;;;;;;;;18.50;16.75;;;;;20.19;27.09;102282.53;4974102;28;46319;-53
2022/03/24 00:14:22;;;;;;;;;20.00;16.00;;;;;20.18;27.22;102283.44;4974267;28;45279;-51
2022/03/24 00:16:48;;;;;;;;;17.00;16.25;;;;;20.17;27.45;102281.72;4974058;28;45350;-51
2022/03/24 00:19:16;;;;;;;;;20.50;18.75;;;;;20.17;27.02;102281.72;4956840;28;45483;-50
2022/03/24 00:21:42;;;;;;;;;18.50;17.75;;;;;20.17;27.14;102281.72;4972687;28;46062;-51
2022/03/24 00:24:08;;;;;;;;;21.75;18.00;;;;;20.16;27.29;102286.13;4972725;28;45399;-45
2022/03/24 00:26:33;;;;;;;;;18.75;18.75;;;;;20.16;27.14;102293.16;4974312;28;45347;-52
2022/03/24 00:28:58;;;;;;;;;15.75;14.50;;;;;20.14;27.16;102277.41;4974223;28;45594;-50
2022/03/24 00:31:24;;;;;;;;;17.75;16.25;;;;;20.15;27.47;102278.28;4973433;28;45462;-52
2022/03/24 00:33:50;;;;;;;;;16.50;14.75;;;;;20.14;27.62;102273.91;4973869;28;45441;-53
2022/03/24 00:36:16;;;;;;;;;19.25;18.00;;;;;20.14;27.22;102280.06;4973999;28;45391;-52
2022/03/24 00:38:41;;;;;;;;;20.25;16.50;;;;;20.14;27.15;102273.91;4974021;28;45605;-52
2022/03/24 00:41:06;;;;;;;;;16.50;15.75;;;;;20.13;27.13;102269.56;4973822;28;45449;-56
2022/03/24 00:43:33;;;;;;;;;18.50;17.75;;;;;20.12;27.42;102266.06;4973649;28;45424;-56
2022/03/24 00:45:59;;;;;;;;;19.50;15.75;;;;;20.13;27.16;102266.91;4973815;28;45385;-53
2022/03/24 00:48:25;;;;;;;;;15.50;14.75;;;;;20.11;27.64;102268.75;4973952;28;45555;-52
2022/03/24 00:50:51;;;;;;;;;15.75;14.00;;;;;20.12;27.39;102267.84;4973607;28;45340;-51
2022/03/24 00:53:18;;;;;;;;;17.25;14.00;;;;;20.11;27.38;102266.13;4973598;28;45323;-53
2022/03/24 00:55:43;;;;;;;;;17.75;17.00;;;;;20.10;27.13;102265.25;4972562;28;45478;-55
2022/03/24 00:58:10;;;;;;;;;19.75;16.50;;;;;20.11;27.54;102263.50;4973832;28;45496;-50
2022/03/24 01:00:37;;;;;;;;;17.25;15.25;;;;;20.10;27.49;102264.41;4973627;28;46958;-50
2022/03/24 01:03:06;;;;;;;;;16.25;15.75;;;;;20.10;27.31;102264.41;4973505;28;45926;-52
2022/03/24 01:05:34;;;;;;;;;18.50;17.50;;;;;20.10;27.31;102259.16;4973519;28;45325;-55
2022/03/24 01:08:00;;;;;;;;;17.00;17.00;;;;;20.08;27.74;102265.31;4972385;28;45583;-56
2022/03/24 01:10:26;;;;;;;;;17.00;16.50;;;;;20.08;27.21;102260.03;4971984;28;48892;-56
2022/03/24 01:12:51;;;;;;;;;15.75;14.25;;;;;20.08;27.18;102254.78;4973390;28;45961;-50
2022/03/24 01:15:19;;;;;;;;;16.50;16.50;;;;;20.08;27.22;102246.00;4973578;28;45409;-53
2022/03/24 01:17:45;;;;;;;;;21.00;17.25;;;;;20.07;27.61;102253.06;4972164;28;45435;-52
2022/03/24 01:20:12;;;;;;;;;16.75;16.75;;;;;20.07;27.42;102252.19;4973041;28;45255;-53
2022/03/24 01:22:38;;;;;;;;;15.75;15.75;;;;;20.06;27.54;102248.69;4973578;28;45339;-53
2022/03/24 01:25:06;;;;;;;;;22.50;18.25;;;;;20.06;27.31;102248.69;4973267;28;45394;-54
2022/03/24 01:27:32;;;;;;;;;19.00;17.00;;;;;20.06;27.54;102246.06;4973390;28;45559;-55
2022/03/24 01:29:59;;;;;;;;;16.00;16.00;;;;;20.06;27.28;102248.69;4972984;28;46004;-53
2022/03/24 01:32:28;;;;;;;;;20.00;15.75;;;;;20.06;27.13;102248.69;4972987;28;45352;-51
2022/03/24 01:34:56;;;;;;;;;17.75;16.25;;;;;20.06;27.39;102247.84;4973351;28;45430;-52
2022/03/24 01:37:23;;;;;;;;;18.25;17.25;;;;;20.05;27.31;102246.97;4973080;28;45394;-51
2022/03/24 01:39:50;;;;;;;;;15.00;14.25;;;;;20.04;27.37;102247.88;4972682;28;46264;-50
2022/03/24 01:42:18;;;;;;;;;19.25;13.75;;;;;20.04;27.39;102245.25;4972723;28;45854;-51
2022/03/24 01:44:47;;;;;;;;;17.50;17.50;;;;;20.05;27.72;102240.88;4976286;28;45334;-54
2022/03/24 01:47:15;;;;;;;;;17.50;17.50;;;;;20.05;27.59;102246.97;4975013;28;45423;-55
2022/03/24 01:49:44;;;;;;;;;15.25;15.25;;;;;20.05;27.43;102240.88;4976355;28;45892;-54
2022/03/24 01:52:12;;;;;;;;;17.50;15.00;;;;;20.04;27.72;102239.97;4976159;28;45766;-53
2022/03/24 01:54:40;;;;;;;;;19.00;15.75;;;;;20.05;27.42;102239.06;4976370;28;45405;-55
2022/03/24 01:57:09;;;;;;;;;16.00;14.25;;;;;20.05;27.59;102238.22;4976217;28;45289;-54
2022/03/24 01:59:37;;;;;;;;;18.25;16.50;;;;;20.04;27.36;102233.88;4975646;28;45739;-52
2022/03/24 02:02:06;;;;;;;;;21.00;16.50;;;;;20.04;27.70;102228.59;4975954;28;45728;-52
2022/03/24 02:04:35;;;;;;;;;17.50;16.25;;;;;20.02;27.64;102231.28;4975876;28;45255;-52
2022/03/24 02:07:05;;;;;;;;;18.00;17.00;;;;;20.03;27.51;102229.50;4975915;28;45325;-53
2022/03/24 02:09:31;;;;;;;;;18.25;15.25;;;;;20.03;27.93;102226.88;4975617;28;46059;-54
2022/03/24 02:11:56;;;;;;;;;19.75;18.00;;;;;20.03;27.51;102227.72;4975557;28;45353;-53
2022/03/24 02:14:22;;;;;;;;;19.50;18.00;;;;;20.03;27.50;102232.16;4975822;28;45624;-53
2022/03/24 02:16:49;;;;;;;;;18.00;17.00;;;;;20.03;27.40;102232.16;4975614;28;45594;-50
2022/03/24 02:19:20;;;;;;;;;21.00;16.25;;;;;20.02;27.42;102231.28;4975471;28;46727;-54
2022/03/24 02:21:46;;;;;;;;;16.25;15.75;;;;;20.02;27.71;102236.53;4975348;28;45723;-54
2022/03/24 02:24:14;;;;;;;;;15.50;15.50;;;;;20.02;27.84;102225.16;4976003;28;45229;-56
2022/03/24 02:26:42;;;;;;;;;17.75;16.75;;;;;20.01;27.27;102229.53;4975009;28;45547;-54
2022/03/24 02:29:10;;;;;;;;;15.75;14.75;;;;;20.02;27.51;102225.16;4975400;28;46262;-52
2022/03/24 02:31:56;;;;;;;;;14.75;14.25;;;;;20.02;27.89;102235.69;4975488;28;45322;-57
2022/03/24 02:34:40;;;;;;;;;17.00;16.50;;;;;20.01;27.86;102221.66;4975622;28;45369;-52
2022/03/24 02:37:09;;;;;;;;;19.00;16.25;;;;;20.02;27.47;102227.78;4975809;28;45367;-56
2022/03/24 02:39:42;;;;;;;;;15.00;15.00;;;;;20.02;27.47;102220.75;4975234;28;46095;-51
2022/03/24 02:42:14;;;;;;;;;21.00;18.00;;;;;20.01;27.83;102223.44;4975265;28;45567;-55
2022/03/24 02:44:44;;;;;;;;;16.50;14.75;;;;;20.00;27.35;102219.94;4975743;28;45292;-55
2022/03/24 02:47:11;;;;;;;;;15.25;13.50;;;;;20.00;27.35;102221.72;4975870;28;45386;-50
2022/03/24 02:49:37;;;;;;;;;20.75;16.25;;;;;20.01;27.86;102228.69;4975311;28;45336;-50
2022/03/24 02:52:03;;;;;;;;;13.00;9.25;;;;;19.99;27.86;102223.50;4975342;28;45893;-48
2022/03/24 02:54:30;;;;;;;;;20.25;16.25;;;;;19.99;27.41;102227.88;4975198;28;45287;-54
2022/03/24 02:56:56;;;;;;;;;15.75;15.75;;;;;20.00;27.64;102221.72;4974396;28;45340;-58
2022/03/24 02:59:21;;;;;;;;;18.75;18.50;;;;;19.99;27.32;102222.63;4975029;28;46357;-51
2022/03/24 03:01:58;;;;;;;;;16.00;15.75;;;;;19.99;27.47;102225.25;4975213;28;45334;-54
2022/03/24 03:04:23;;;;;;;;;15.75;15.75;;;;;19.98;27.29;102229.66;4975502;28;45461;-48
2022/03/24 03:06:49;;;;;;;;;19.25;17.25;;;;;19.98;27.45;102221.75;4975590;28;45519;-53
2022/03/24 03:09:16;;;;;;;;;15.00;14.75;;;;;19.98;27.86;102224.41;4975291;28;45493;-50
2022/03/24 03:11:45;;;;;;;;;20.00;16.00;;;;;19.98;27.93;102227.03;4975265;28;45487;-49
2022/03/24 03:14:12;;;;;;;;;17.75;17.75;;;;;19.97;27.66;102225.31;4975561;28;45465;-47
2022/03/24 03:16:38;;;;;;;;;19.25;15.25;;;;;19.97;27.99;102227.94;4975276;28;45461;-54
2022/03/24 03:19:04;;;;;;;;;18.00;17.75;;;;;19.97;28.10;102227.94;4974633;28;46193;-54
2022/03/24 03:21:30;;;;;;;;;20.75;16.75;;;;;19.96;27.39;102220.94;4974828;28;45428;-53
2022/03/24 03:23:56;;;;;;;;;15.00;14.00;;;;;19.96;27.92;102225.34;4973769;28;45349;-55
2022/03/24 03:26:23;;;;;;;;;18.00;16.50;;;;;19.97;27.86;102222.66;4975092;28;45346;-50
2022/03/24 03:28:52;;;;;;;;;12.50;11.50;;;;;19.96;27.59;102223.56;4974817;28;46264;-53
2022/03/24 03:31:17;;;;;;;;;17.00;14.50;;;;;19.94;27.87;102220.13;4974838;28;45430;-56
2022/03/24 03:33:43;;;;;;;;;18.25;16.75;;;;;19.95;27.76;102224.47;4975138;28;45445;-52
2022/03/24 03:36:08;;;;;;;;;16.00;16.00;;;;;19.96;27.43;102231.47;4974900;28;45603;-47
2022/03/24 03:38:33;;;;;;;;;18.67;15.67;;;;;19.96;28.00;102225.34;4974462;28;52179;-47
2022/03/24 03:41:00;;;;;;;;;16.50;15.25;;;;;19.96;27.93;102225.34;4974496;28;45390;-45
2022/03/24 03:43:26;;;;;;;;;17.00;15.50;;;;;19.94;27.62;102228.03;4974783;28;45369;-49
2022/03/24 03:45:51;;;;;;;;;17.75;17.25;;;;;19.95;27.75;102228.91;4974727;28;45532;-52
2022/03/24 03:48:17;;;;;;;;;17.00;17.00;;;;;19.95;27.52;102228.91;4973500;28;45379;-50
2022/03/24 03:50:43;;;;;;;;;15.00;12.50;;;;;19.93;27.46;102219.28;4974898;28;45344;-46
2022/03/24 03:53:09;;;;;;;;;14.25;12.25;;;;;19.95;27.93;102228.91;4974636;28;45207;-50
2022/03/24 03:55:36;;;;;;;;;17.50;16.00;;;;;19.95;27.71;102229.75;4974787;28;45269;-49
2022/03/24 03:58:02;;;;;;;;;18.00;16.50;;;;;19.95;27.72;102218.38;4974354;28;45531;-51
2022/03/24 04:03:12;;;;;;;;;19.50;17.25;;;;;19.92;27.75;102220.19;4974505;28;45232;-47
2022/03/24 04:05:38;;;;;;;;;17.00;17.00;;;;;19.94;28.18;102228.03;4973928;28;45810;-47
2022/03/24 04:08:03;;;;;;;;;18.00;17.25;;;;;19.93;27.95;102218.41;4974342;28;46031;-52
2022/03/24 04:10:30;;;;;;;;;18.75;16.50;;;;;19.93;27.76;102218.41;4974276;28;45277;-51
2022/03/24 04:12:57;;;;;;;;;17.00;17.00;;;;;19.93;27.88;102223.66;4974263;28;45476;-49
2022/03/24 04:15:23;;;;;;;;;16.50;16.50;;;;;19.93;27.70;102226.28;4974459;28;45409;-48
2022/03/24 04:17:49;;;;;;;;;18.75;16.25;;;;;19.93;27.87;102226.28;4974252;28;45468;-49
2022/03/24 04:20:20;;;;;;;;;16.75;15.75;;;;;19.91;27.80;102214.94;4974271;28;45257;-54
2022/03/24 04:22:50;;;;;;;;;16.50;15.75;;;;;19.91;28.00;102218.47;4974321;28;45360;-55
2022/03/24 04:25:16;;;;;;;;;15.50;14.50;;;;;19.92;27.75;102220.19;4974763;28;45522;-55
2022/03/24 04:27:41;;;;;;;;;16.75;15.00;;;;;19.91;28.08;102220.22;4974036;28;45246;-54
2022/03/24 04:30:08;;;;;;;;;16.75;16.00;;;;;19.91;28.25;102220.22;4974078;28;45346;-54
2022/03/24 04:32:33;;;;;;;;;16.50;16.50;;;;;19.91;27.95;102217.59;4974019;28;45374;-50
2022/03/24 04:34:59;;;;;;;;;17.75;17.75;;;;;19.89;28.06;102215.00;4974199;28;45318;-54
2022/03/24 04:37:25;;;;;;;;;16.00;15.50;;;;;19.91;27.81;102209.69;4973790;28;46189;-51
2022/03/24 04:39:51;;;;;;;;;16.75;16.00;;;;;19.89;28.22;102217.63;4973865;28;45889;-50
2022/03/24 04:42:17;;;;;;;;;14.50;14.50;;;;;19.89;27.74;102208.91;4974313;28;45462;-55
2022/03/24 04:44:42;;;;;;;;;19.00;17.25;;;;;19.91;28.02;102217.59;4974212;28;45386;-57
2022/03/24 04:47:07;;;;;;;;;14.75;14.25;;;;;19.89;28.10;102219.41;4972472;28;46937;-55
2022/03/24 04:49:33;;;;;;;;;19.25;16.50;;;;;19.89;27.78;102219.41;4973761;28;45426;-50
2022/03/24 04:51:59;;;;;;;;;15.50;15.00;;;;;19.89;28.17;102216.78;4972701;28;45315;-50
2022/03/24 04:54:24;;;;;;;;;16.25;14.75;;;;;19.88;27.64;102215.91;4973958;28;45235;-55
2022/03/24 04:56:50;;;;;;;;;18.25;18.25;;;;;19.88;28.02;102209.81;4973912;28;45303;-53
2022/03/24 04:59:15;;;;;;;;;18.25;15.75;;;;;19.88;28.04;102207.19;4973494;28;45387;-52
2022/03/24 05:01:40;;;;;;;;;21.00;17.00;;;;;19.88;28.01;102212.44;4973649;28;45240;-48
2022/03/24 05:04:07;;;;;;;;;17.75;17.75;;;;;19.88;28.22;102212.44;4973893;28;45579;-52
2022/03/24 05:06:34;;;;;;;;;19.00;18.75;;;;;19.87;28.13;102208.94;4973344;28;46354;-53
2022/03/24 05:08:59;;;;;;;;;21.50;20.75;;;;;19.87;28.18;102211.56;4973451;28;45506;-51
2022/03/24 05:11:25;;;;;;;;;19.00;19.00;;;;;19.86;27.93;102203.72;4973605;28;45332;-47
2022/03/24 05:13:51;;;;;;;;;24.75;22.00;;;;;19.87;28.01;102218.59;4974104;28;45303;-48
2022/03/24 05:16:17;;;;;;;;;26.00;24.50;;;;;19.85;27.68;102208.06;4973238;28;45502;-54
2022/03/24 05:18:42;;;;;;;;;23.25;21.00;;;;;19.86;27.77;102216.88;4975954;28;45380;-55
2022/03/24 05:21:08;;;;;;;;;26.25;23.50;;;;;19.84;27.60;102214.28;4976236;28;45852;-51
2022/03/24 05:23:36;;;;;;;;;33.00;30.75;;;;;19.83;27.91;102222.19;4976588;28;45334;-52
2022/03/24 05:26:02;;;;;;;;;49.00;39.00;;;;;19.82;28.06;102221.34;4976185;28;45323;-51
2022/03/24 05:28:27;;;;;;;;;54.50;45.00;;;;;19.80;27.54;102220.53;4976257;28;45241;-56
2022/03/24 05:30:53;;;;;;;;;59.25;47.50;;;;;19.81;28.16;102216.09;4976334;28;45751;-47
2022/03/24 05:33:18;;;;;;;;;63.75;50.75;;;;;19.80;27.42;102230.16;4976693;28;45469;-54
2022/03/24 05:35:44;;;;;;;;;70.75;56.00;;;;;19.77;27.73;102224.13;4975897;28;45593;-54
2022/03/24 05:38:09;;;;;;;;;73.25;61.00;;;;;19.75;27.12;102223.28;4975952;28;45318;-56
2022/03/24 05:40:38;;;;;;;;;76.00;64.75;;;;;19.73;27.80;102225.09;4976082;28;45354;-52
2022/03/24 05:43:03;;;;;;;;;72.00;59.25;;;;;19.72;27.67;102220.75;4975215;28;45554;-51
2022/03/24 05:45:29;;;;;;;;;72.75;60.75;;;;;19.71;27.66;102223.44;4974700;28;46905;-55
2022/03/24 05:47:54;;;;;;;;;72.00;59.25;;;;;19.70;27.38;102219.06;4975837;28;45246;-53
2022/03/24 05:50:20;;;;;;;;;70.75;55.50;;;;;19.69;27.37;102228.72;4976325;28;45405;-50
2022/03/24 05:52:49;;;;;;;;;65.00;50.75;;;;;19.68;27.39;102226.16;4976150;28;45232;-56
2022/03/24 05:55:16;;;;;;;;;67.75;53.50;;;;;19.66;27.32;102225.31;4975855;28;45363;-56
2022/03/24 05:57:42;;;;;;;;;68.75;50.75;;;;;19.65;27.33;102223.59;4975688;28;45382;-52
2022/03/24 06:00:08;;;;;;;;;64.25;50.75;;;;;19.64;27.13;102230.63;4975895;28;45364;-52
2022/03/24 06:02:34;;;;;;;;;63.50;50.75;;;;;19.62;27.06;102228.03;4976171;28;45262;-52
2022/03/24 06:05:00;;;;;;;;;58.25;45.75;;;;;19.62;27.04;102235.09;4975622;28;45483;-52
2022/03/24 06:07:26;;;;;;;;;55.25;45.50;;;;;19.60;27.45;102234.25;4975601;28;45342;-52
2022/03/24 06:09:51;;;;;;;;;57.75;46.50;;;;;19.59;27.34;102232.53;4976069;28;45330;-48
2022/03/24 06:12:18;;;;;;;;;55.00;45.75;;;;;19.59;27.19;102232.53;4975749;28;45582;-50
2022/03/24 06:14:43;;;;;;;;;56.75;45.00;;;;;19.59;27.22;102238.66;4975546;28;45929;-50
2022/03/24 06:17:09;;;;;;;;;50.50;40.00;;;;;19.58;27.15;102230.81;4974215;28;45358;-54
2022/03/24 06:19:35;;;;;;;;;53.00;41.50;;;;;19.58;27.16;102231.69;4975331;28;45396;-54
2022/03/24 06:22:03;;;;;;;;;51.50;41.75;;;;;19.58;27.45;102229.06;4975799;28;45607;-52
2022/03/24 06:24:30;;;;;;;;;51.00;40.00;;;;;19.56;27.04;102230.84;4975433;28;45596;-54
2022/03/24 06:26:56;;;;;;;;;51.00;41.25;;;;;19.57;27.33;102229.06;4974321;28;45775;-47
2022/03/24 06:29:22;;;;;;;;;49.75;40.25;;;;;19.57;27.38;102234.34;4975448;28;45326;-48
2022/03/24 06:31:48;;;;;;;;;52.25;41.25;;;;;19.56;27.38;102232.63;4975779;28;45231;-51
2022/03/24 06:34:13;;;;;;;;;47.25;37.75;;;;;19.55;27.02;102234.38;4975323;28;45936;-47
2022/03/24 06:36:39;;;;;;;;;43.50;37.00;;;;;19.57;27.36;102239.59;4975298;28;45318;-55
2022/03/24 06:39:05;;;;;;;;;45.75;38.25;;;;;19.56;27.30;102237.91;4974140;28;45402;-55
2022/03/24 06:41:31;;;;;;;;;48.50;38.75;;;;;19.56;27.22;102243.16;4974097;28;45522;-53
2022/03/24 06:43:57;;;;;;;;;46.75;37.00;;;;;19.55;27.01;102230.91;4975418;28;45382;-46
2022/03/24 06:46:25;;;;;;;;;47.25;36.75;;;;;19.55;27.37;102233.53;4975564;28;45718;-50
2022/03/24 06:48:51;;;;;;;;;49.50;38.00;;;;;19.55;27.00;102238.81;4975374;28;45173;-50
2022/03/24 06:51:16;;;;;;;;;47.50;36.50;;;;;19.54;26.95;102235.28;4974224;28;45616;-49
2022/03/24 06:53:41;;;;;;;;;45.00;36.25;;;;;19.54;27.27;102240.56;4975087;28;46709;-52
2022/03/24 06:56:07;;;;;;;;;50.25;37.50;;;;;19.55;27.09;102246.69;4975075;28;45714;-55
2022/03/24 06:58:32;;;;;;;;;45.75;34.75;;;;;19.53;27.29;102241.47;4975194;28;45363;-53
2022/03/24 07:00:58;;;;;;;;;38.25;31.75;;;;;19.53;27.62;102244.09;4975334;28;45254;-54
2022/03/24 07:03:23;;;;;;;;;42.75;33.75;;;;;19.53;27.27;102248.50;4975192;28;46011;-50
2022/03/24 07:05:48;;;;;;;;;35.25;33.25;;;;;19.55;27.22;102251.94;4975044;28;45504;-49
2022/03/24 07:08:14;;;;;;;;;38.75;33.50;;;;;19.54;26.84;102255.50;4975028;28;45282;-48
2022/03/24 07:10:39;;;;;;;;;43.25;32.50;;;;;19.54;27.20;102253.69;4975225;28;45653;-44
2022/03/24 07:13:05;;;;;;;;;39.50;32.00;;;;;19.56;27.42;102256.31;4974748;28;46948;-50
2022/03/24 07:15:31;;;;;;;;;43.00;34.00;;;;;19.54;27.02;102250.22;4974914;28;45383;-47
2022/03/24 07:17:56;;;;;;;;;42.50;34.75;;;;;19.55;27.37;102251.94;4990113;27;45297;-48
2022/03/24 07:20:23;;;;;;;;;34.00;31.00;;;;;19.55;27.65;102254.59;4974814;28;45621;-53
2022/03/24 07:22:48;;;;;;;;;35.50;31.50;;;;;19.56;27.67;102251.06;4974617;28;47286;-50
2022/03/24 07:25:14;;;;;;;;;33.75;30.25;;;;;19.56;27.73;102251.91;4974711;28;45391;-52
2022/03/24 07:27:42;;;;;;;;;34.75;32.50;;;;;19.56;27.43;102254.53;4974676;28;45302;-54
2022/03/24 07:30:09;;;;;;;;;41.00;34.50;;;;;19.57;27.50;102255.38;4975024;28;45277;-49
2022/03/24 07:32:35;;;;;;;;;38.50;33.25;;;;;19.58;27.81;102262.38;4974467;28;47343;-54
2022/03/24 07:35:00;;;;;;;;;31.50;29.00;;;;;19.58;27.83;102265.00;4974654;28;45367;-53
2022/03/24 07:37:27;;;;;;;;;37.00;32.75;;;;;19.58;27.68;102265.88;4975059;28;45252;-49
2022/03/24 07:39:53;;;;;;;;;36.00;33.25;;;;;19.58;27.54;102262.38;4973436;28;45505;-55
2022/03/24 07:42:18;;;;;;;;;33.75;30.75;;;;;19.58;27.87;102260.63;4974392;28;45322;-53
2022/03/24 07:44:44;;;;;;;;;33.25;30.50;;;;;19.61;27.46;102264.91;4974322;28;45350;-51
2022/03/24 07:47:09;;;;;;;;;39.75;31.50;;;;;19.61;27.37;102268.44;4974568;28;45280;-51
2022/03/24 07:49:35;;;;;;;;;38.75;30.50;;;;;19.62;27.70;102269.28;4974666;28;45250;-51
2022/03/24 07:52:08;;;;;;;;;33.00;30.25;;;;;19.62;27.34;102270.13;4974164;28;47687;-49
2022/03/24 07:55:00;;;;;;;;;36.50;31.25;;;;;19.63;27.66;102276.25;4974306;28;45359;-51
2022/03/24 07:57:30;;;;;;;;;37.50;29.25;;;;;19.63;27.84;102271.00;4974763;28;45469;-48
2022/03/24 07:59:57;;;;;;;;;36.75;31.00;;;;;19.63;27.71;102279.75;4974823;28;45365;-54
2022/03/24 08:02:23;;;;;;;;;35.00;30.75;;;;;19.63;27.89;102276.25;4973965;28;47542;-55
2022/03/24 08:04:49;;;;;;;;;31.25;29.00;;;;;19.65;27.64;102274.44;4974089;28;45499;-51
2022/03/24 08:07:15;;;;;;;;;35.25;31.00;;;;;19.66;27.71;102275.31;4974150;28;45428;-52
2022/03/24 08:09:40;;;;;;;;;29.00;26.50;;;;;19.66;27.86;102275.31;4974489;28;45371;-53
2022/03/24 08:12:07;;;;;;;;;26.50;25.50;;;;;19.66;27.82;102270.91;4974065;28;46103;-55
2022/03/24 08:14:32;;;;;;;;;30.75;28.00;;;;;19.65;27.51;102279.72;4974131;28;45400;-51
2022/03/24 08:16:57;;;;;;;;;28.67;26.00;;;;;19.66;27.65;102276.19;4974298;28;45386;-53
2022/03/24 08:19:22;;;;;;;;;34.25;30.00;;;;;19.67;27.44;102285.78;4974196;28;45248;-55
2022/03/24 08:21:48;;;;;;;;;31.25;27.50;;;;;19.66;27.65;102278.81;4973835;28;45328;-52
2022/03/24 08:24:13;;;;;;;;;36.25;31.25;;;;;19.69;27.49;102283.13;4973831;28;45460;-52
2022/03/24 08:26:39;;;;;;;;;31.50;29.75;;;;;19.68;27.42;102279.59;4972583;28;45257;-56
2022/03/24 08:29:04;;;;;;;;;36.00;31.00;;;;;19.68;27.48;102276.97;4974223;28;45357;-55
2022/03/24 08:31:30;;;;;;;;;31.50;30.25;;;;;19.69;27.39;102281.31;4974000;28;46511;-54
2022/03/24 08:33:57;;;;;;;;;32.50;29.25;;;;;19.70;27.78;102284.84;4972400;28;45453;-55
2022/03/24 08:36:23;;;;;;;;;28.75;25.25;;;;;19.71;27.64;102284.78;4973872;28;45320;-56
2022/03/24 08:38:48;;;;;;;;;35.50;29.75;;;;;19.72;27.81;102283.03;4973972;28;45595;-54
2022/03/24 08:41:13;;;;;;;;;35.75;31.00;;;;;19.72;28.09;102283.88;4973524;28;45413;-50
2022/03/24 08:43:39;;;;;;;;;31.00;28.00;;;;;19.73;27.87;102282.97;4972245;28;46132;-51
2022/03/24 08:46:06;;;;;;;;;32.75;31.25;;;;;19.74;28.02;102283.81;4973541;28;45304;-55
2022/03/24 08:48:32;;;;;;;;;33.25;31.25;;;;;19.75;27.75;102286.44;4974195;28;45516;-49
2022/03/24 08:50:57;;;;;;;;;28.25;24.75;;;;;19.77;27.94;102289.88;4974083;28;46140;-55
2022/03/24 08:53:22;;;;;;;;;31.25;28.25;;;;;19.79;27.71;102292.47;4976632;28;45279;-58
2022/03/24 08:55:48;;;;;;;;;31.25;28.50;;;;;19.80;28.13;102293.31;4976502;28;45467;-54
2022/03/24 08:58:18;;;;;;;;;34.25;30.75;;;;;19.78;27.69;102296.88;4976708;28;45355;-55
2022/03/24 09:00:46;;;;;;;;;30.00;26.00;;;;;19.80;27.63;102288.03;4976432;28;46129;-54
2022/03/24 09:03:11;;;;;;;;;29.25;25.50;;;;;19.80;27.63;102294.19;4976355;28;45812;-52
2022/03/24 09:05:37;;;;;;;;;34.50;29.00;;;;;19.80;27.27;102291.56;4976445;28;45473;-52
2022/03/24 09:08:02;;;;;;;;;29.25;23.50;;;;;19.81;27.87;102295.91;4976947;28;45398;-53
2022/03/24 09:10:28;;;;;;;;;26.50;24.25;;;;;19.79;27.54;102297.72;4976267;28;46256;-54
2022/03/24 09:12:53;;;;;;;;;20.00;20.00;;;;;19.80;27.09;102298.56;4976352;28;45760;-55
2022/03/24 09:15:19;;;;;;;;;29.25;25.75;;;;;19.79;27.12;102292.47;4976515;28;45671;-55
2022/03/24 09:17:46;;;;;;;;;29.00;27.00;;;;;19.81;28.18;102295.03;4976331;28;45484;-51
2022/03/24 09:20:14;;;;;;;;;29.25;22.25;;;;;19.81;27.34;102295.91;4976088;28;45930;-48
2022/03/24 09:22:41;;;;;;;;;27.00;24.00;;;;;19.82;27.37;102300.28;4975895;28;45931;-50
2022/03/24 09:25:07;;;;;;;;;28.25;26.50;;;;;19.82;27.50;102299.41;4976398;28;45281;-50
2022/03/24 09:27:34;;;;;;;;;27.00;25.00;;;;;19.83;28.15;102294.09;4976651;28;45418;-52
2022/03/24 09:29:59;;;;;;;;;33.00;26.50;;;;;19.84;27.23;102295.84;4974725;28;46083;-55
2022/03/24 09:32:25;;;;;;;;;26.50;21.75;;;;;19.83;27.20;102298.50;4976076;28;45504;-56
2022/03/24 09:34:50;;;;;;;;;30.75;27.75;;;;;19.83;27.32;102299.38;4976303;28;45335;-54
2022/03/24 09:37:18;;;;;;;;;34.25;27.75;;;;;19.82;27.18;102296.75;4976171;28;45462;-51
2022/03/24 09:39:44;;;;;;;;;26.75;24.00;;;;;19.84;27.52;102301.09;4975766;28;47086;-47
2022/03/24 09:42:10;;;;;;;;;23.75;22.75;;;;;19.85;27.97;102302.78;4975866;28;45442;-49
2022/03/24 09:44:37;;;;;;;;;28.25;26.25;;;;;19.85;27.40;102297.53;4976046;28;45486;-57
2022/03/24 09:47:02;;;;;;;;;28.00;26.75;;;;;19.86;27.88;102298.44;4975430;28;45361;-55
2022/03/24 09:49:28;;;;;;;;;28.00;26.50;;;;;19.86;27.19;102295.81;4974400;28;47052;-52
2022/03/24 09:51:53;;;;;;;;;27.25;25.00;;;;;19.84;27.82;102289.69;4975854;28;45276;-52
2022/03/24 09:54:19;;;;;;;;;31.50;30.25;;;;;19.85;27.42;102297.53;4976040;28;45314;-54
2022/03/24 09:56:44;;;;;;;;;21.50;18.75;;;;;19.85;27.42;102289.63;4976158;28;45178;-53
2022/03/24 09:59:09;;;;;;;;;20.75;20.75;;;;;19.87;27.85;102284.38;4975644;28;45257;-55
2022/03/24 10:01:39;;;;;;;;;29.75;25.00;;;;;19.87;27.30;102290.50;4976009;28;45284;-55
2022/03/24 10:04:15;;;;;;;;;29.75;26.25;;;;;19.88;28.08;102286.97;4975314;28;45432;-55
2022/03/24 10:06:59;;;;;;;;;26.75;21.50;;;;;19.89;27.63;102293.94;4977093;28;45535;-55
2022/03/24 10:09:45;;;;;;;;;31.50;23.75;;;;;19.89;27.30;102283.41;4975565;28;47027;-51
2022/03/24 10:12:23;;;;;;;;;25.75;23.50;;;;;19.89;27.31;102280.78;4974389;28;45787;-51
2022/03/24 10:15:03;;;;;;;;;31.25;26.75;;;;;19.92;27.47;102277.19;4975709;28;45424;-50
2022/03/24 10:17:29;;;;;;;;;31.75;25.00;;;;;19.92;27.60;102279.81;4975674;28;45531;-51
2022/03/24 10:20:05;;;;;;;;;26.00;21.25;;;;;19.92;27.80;102283.34;4975443;28;46374;-55
2022/03/24 10:22:31;;;;;;;;;25.25;23.75;;;;;19.94;27.32;102278.03;4975486;28;46127;-55
2022/03/24 10:24:57;;;;;;;;;32.50;26.75;;;;;19.92;27.37;102278.06;4974418;28;45372;-53
2022/03/24 10:27:25;;;;;;;;;32.50;27.25;;;;;19.93;27.63;102278.91;4975765;28;45378;-51
2022/03/24 10:29:55;;;;;;;;;28.25;25.75;;;;;19.92;27.30;102277.19;4975213;28;47603;-52
2022/03/24 10:32:26;;;;;;;;;22.75;20.50;;;;;19.93;27.75;102278.91;4975184;28;45830;-48
2022/03/24 10:35:08;;;;;;;;;27.50;25.25;;;;;19.94;27.08;102278.03;4975307;28;45287;-52
2022/03/24 10:37:35;;;;;;;;;31.50;22.25;;;;;19.95;27.53;102271.84;4975890;28;45299;-45
2022/03/24 10:40:09;;;;;;;;;22.75;21.25;;;;;19.96;27.54;102277.97;4975077;28;48315;-51
2022/03/24 10:42:39;;;;;;;;;24.50;23.50;;;;;19.96;27.55;102276.22;4975577;28;45849;-49
2022/03/24 10:45:17;;;;;;;;;29.50;26.75;;;;;19.97;27.28;102274.44;4975647;28;45462;-51
2022/03/24 10:47:45;;;;;;;;;21.75;20.75;;;;;19.98;27.21;102276.16;4975088;28;45559;-54
2022/03/24 10:50:40;;;;;;;;;22.75;20.50;;;;;19.99;27.33;102272.63;4975013;28;46681;-50
2022/03/24 10:53:15;;;;;;;;;24.75;21.50;;;;;19.98;27.59;102270.88;4983501;28;45322;-47
2022/03/24 10:55:44;;;;;;;;;22.50;20.25;;;;;19.98;27.22;102271.75;4973952;28;45210;-47
2022/03/24 10:58:24;;;;;;;;;22.50;19.50;;;;;20.00;27.73;102269.06;4975306;28;45733;-48
2022/03/24 11:00:52;;;;;;;;;21.00;20.00;;;;;20.00;27.02;102269.06;4974774;28;45382;-48
2022/03/24 11:03:20;;;;;;;;;29.00;23.00;;;;;20.01;27.41;102271.66;4974725;28;45855;-49
2022/03/24 11:05:46;;;;;;;;;26.25;22.50;;;;;20.01;27.07;102262.91;4974906;28;45448;-49
2022/03/24 11:08:15;;;;;;;;;19.75;18.75;;;;;20.03;27.07;102271.63;4975066;28;45319;-47
2022/03/24 11:10:49;;;;;;;;;26.75;24.25;;;;;20.02;27.14;102257.59;4974809;28;45343;-49
2022/03/24 11:13:41;;;;;;;;;25.50;21.00;;;;;20.04;27.09;102255.78;4974883;28;45757;-49